Time;durP1;ratioP1;P1;durP2;ratioP2;P2;SDS_P1;SDS_P2;PMS_P1;PMS_P2;Temp;Humidity;BMP_temperature;BMP_pressure;BME280_temperature;BME280_humidity;BME280_pressure;Samples;Min_cycle;Max_cycle;Signal;HPM_P1;HPM_P2
2023/03/05 00:00:10;;;;;;;21.80;11.30;;;9.70;52.20;;;;;;5093779;28;20442;-86
2023/03/05 00:02:40;;;;;;;26.73;12.30;;;9.70;53.00;;;;;;5084633;28;20498;-86
2023/03/05 00:05:09;;;;;;;28.53;13.73;;;9.70;52.50;;;;;;5066342;28;20472;-89
2023/03/05 00:07:36;;;;;;;24.77;12.70;;;9.80;52.40;;;;;;5081157;28;20454;-87
2023/03/05 00:10:05;;;;;;;25.07;13.40;;;9.70;52.40;;;;;;5076556;28;20538;-89
2023/03/05 00:12:32;;;;;;;25.30;12.17;;;9.60;52.60;;;;;;5083122;28;20471;-87
2023/03/05 00:15:00;;;;;;;25.40;12.20;;;9.50;52.80;;;;;;5066771;28;20519;-88
2023/03/05 00:17:27;;;;;;;28.03;11.67;;;9.20;53.60;;;;;;5062974;28;20503;-88
2023/03/05 00:19:53;;;;;;;24.50;12.80;;;9.20;54.00;;;;;;5060423;28;20970;-88
2023/03/05 00:22:22;;;;;;;27.10;12.40;;;9.30;54.10;;;;;;5066802;28;20462;-86
2023/03/05 00:24:50;;;;;;;29.27;13.53;;;9.30;53.80;;;;;;5075873;28;20458;-87
2023/03/05 00:27:17;;;;;;;30.57;13.40;;;9.40;53.70;;;;;;5059138;27;20452;-86
2023/03/05 00:29:44;;;;;;;27.27;11.90;;;9.50;53.40;;;;;;5066188;27;20466;-85
2023/03/05 00:32:11;;;;;;;28.57;14.10;;;9.60;53.20;;;;;;5067293;27;20879;-86
2023/03/05 00:34:38;;;;;;;29.23;14.37;;;9.70;53.10;;;;;;5079081;27;20486;-87
2023/03/05 00:37:05;;;;;;;29.43;13.77;;;9.80;53.10;;;;;;5060818;27;20826;-86
2023/03/05 00:39:33;;;;;;;29.63;15.10;;;9.80;53.00;;;;;;5061800;27;20449;-89
2023/03/05 00:42:00;;;;;;;25.70;12.60;;;9.80;52.80;;;;;;5087398;27;20548;-91
2023/03/05 00:44:28;;;;;;;29.60;13.97;;;9.90;52.90;;;;;;5100552;27;20438;-87
2023/03/05 00:46:55;;;;;;;28.60;13.17;;;9.90;52.80;;;;;;5062605;27;20458;-86
2023/03/05 00:49:22;;;;;;;27.20;12.30;;;9.90;52.70;;;;;;5070112;27;20477;-87
2023/03/05 00:51:49;;;;;;;28.43;12.87;;;10.00;51.90;;;;;;5070898;27;20478;-88
2023/03/05 00:54:16;;;;;;;25.93;11.90;;;10.00;51.80;;;;;;5096262;27;20545;-87
2023/03/05 00:56:45;;;;;;;28.23;12.73;;;10.00;51.60;;;;;;5079957;27;20453;-85
2023/03/05 00:59:12;;;;;;;25.33;12.30;;;10.00;51.50;;;;;;5088021;27;20442;-85
2023/03/05 01:01:39;;;;;;;24.13;12.97;;;9.90;52.50;;;;;;5073269;27;20682;-89
2023/03/05 01:04:06;;;;;;;24.80;12.27;;;9.70;52.90;;;;;;5083867;27;20540;-87
2023/03/05 01:06:33;;;;;;;29.33;13.50;;;9.70;53.30;;;;;;5079744;27;20434;-87
2023/03/05 01:09:00;;;;;;;28.60;14.00;;;9.80;53.30;;;;;;5068778;27;20982;-87
2023/03/05 01:11:27;;;;;;;34.63;13.37;;;9.80;53.30;;;;;;5065326;27;20573;-87
2023/03/05 01:13:55;;;;;;;29.53;13.90;;;9.80;53.60;;;;;;5068354;27;20447;-87
2023/03/05 01:16:22;;;;;;;34.17;12.03;;;9.80;53.70;;;;;;5094638;27;20454;-88
2023/03/05 01:18:49;;;;;;;29.60;12.23;;;9.90;53.70;;;;;;5098740;27;20450;-87
2023/03/05 01:21:16;;;;;;;23.73;13.07;;;9.90;53.70;;;;;;5075534;27;20481;-87
2023/03/05 01:23:43;;;;;;;33.77;14.07;;;9.60;54.40;;;;;;5067399;27;20477;-86
2023/03/05 01:26:10;;;;;;;27.20;13.80;;;9.40;54.80;;;;;;5072239;27;20438;-90
2023/03/05 01:28:37;;;;;;;34.27;13.90;;;9.10;55.40;;;;;;5086412;27;20534;-88
2023/03/05 01:31:09;;;;;;;26.33;13.80;;;8.90;56.40;;;;;;5084015;27;20458;-86
2023/03/05 01:33:36;;;;;;;20.63;12.00;;;8.80;56.70;;;;;;5075202;27;20446;-87
2023/03/05 01:36:07;;;;;;;19.57;11.33;;;8.70;56.40;;;;;;5087352;27;20449;-88
2023/03/05 01:38:34;;;;;;;21.83;10.80;;;8.80;55.60;;;;;;5084022;27;20446;-86
2023/03/05 01:41:01;;;;;;;20.87;10.07;;;9.00;55.70;;;;;;5070347;27;20812;-86
2023/03/05 01:43:29;;;;;;;16.77;9.90;;;8.90;54.70;;;;;;5096359;27;20453;-86
2023/03/05 01:46:29;;;;;;;16.57;9.53;;;8.90;54.50;;;;;;5070663;27;20438;-86
2023/03/05 01:49:02;;;;;;;21.20;9.87;;;9.20;54.50;;;;;;5085893;27;20442;-85
2023/03/05 01:51:32;;;;;;;20.43;9.70;;;9.40;54.60;;;;;;5092521;27;20466;-86
2023/03/05 01:54:00;;;;;;;19.20;10.20;;;9.60;54.30;;;;;;5076450;27;20439;-86
2023/03/05 01:56:29;;;;;;;16.47;10.90;;;9.70;53.80;;;;;;5074608;27;20534;-88
2023/03/05 01:59:02;;;;;;;15.03;8.97;;;9.70;53.60;;;;;;5073285;27;20445;-86
2023/03/05 02:01:36;;;;;;;20.20;9.87;;;9.80;53.60;;;;;;5085180;27;20466;-87
2023/03/05 02:04:03;;;;;;;19.63;10.37;;;9.90;53.50;;;;;;5077267;27;20457;-86
2023/03/05 02:06:30;;;;;;;18.93;10.13;;;9.90;53.30;;;;;;5069364;27;20442;-88
2023/03/05 02:08:57;;;;;;;19.70;9.77;;;9.90;53.00;;;;;;5089764;27;20942;-86
2023/03/05 02:11:25;;;;;;;18.30;9.60;;;9.80;52.80;;;;;;5083915;28;20893;-86
2023/03/05 02:13:52;;;;;;;25.40;10.03;;;9.70;52.80;;;;;;5085927;27;20446;-90
2023/03/05 02:16:19;;;;;;;20.33;10.53;;;9.70;52.90;;;;;;5097074;27;20449;-86
2023/03/05 02:18:48;;;;;;;23.83;11.70;;;9.60;53.00;;;;;;5089470;27;20439;-89
2023/03/05 02:21:27;;;;;;;27.10;11.23;;;9.60;53.00;;;;;;5080728;27;20821;-85
2023/03/05 02:23:54;;;;;;;20.37;9.70;;;9.60;53.00;;;;;;5088356;27;20518;-87
2023/03/05 02:26:22;;;;;;;20.17;9.40;;;9.60;53.30;;;;;;5077142;27;20566;-87
2023/03/05 02:28:53;;;;;;;20.27;10.60;;;9.60;53.30;;;;;;5076392;27;20500;-86
2023/03/05 02:31:23;;;;;;;18.93;10.97;;;9.70;53.20;;;;;;5100988;27;20447;-86
2023/03/05 02:33:50;;;;;;;23.17;11.10;;;9.60;53.70;;;;;;5067346;27;20446;-87
2023/03/05 02:36:20;;;;;;;21.70;11.00;;;9.20;54.50;;;;;;5072794;27;20454;-87
2023/03/05 02:38:47;;;;;;;23.40;12.07;;;9.20;54.60;;;;;;5073581;28;20814;-89
2023/03/05 02:41:15;;;;;;;23.00;10.10;;;9.20;54.20;;;;;;5089358;27;21598;-87
2023/03/05 02:43:43;;;;;;;20.60;10.60;;;9.10;54.20;;;;;;5073487;27;20476;-87
2023/03/05 02:46:10;;;;;;;22.90;11.00;;;9.00;54.70;;;;;;5073625;27;20451;-89
2023/03/05 02:48:37;;;;;;;22.20;10.77;;;9.10;54.50;;;;;;5085062;27;20827;-87
2023/03/05 02:51:06;;;;;;;23.60;11.10;;;9.20;54.30;;;;;;5098202;27;20477;-88
2023/03/05 02:53:34;;;;;;;24.73;11.27;;;9.30;54.60;;;;;;5097956;27;20447;-86
2023/03/05 02:56:01;;;;;;;20.53;11.20;;;9.40;54.20;;;;;;5089401;27;20450;-88
2023/03/05 02:58:29;;;;;;;23.37;11.83;;;9.50;53.90;;;;;;5068547;27;20529;-87
2023/03/05 03:00:56;;;;;;;18.27;10.00;;;9.50;53.90;;;;;;5067137;27;20431;-87
2023/03/05 03:03:24;;;;;;;17.77;9.53;;;9.50;54.10;;;;;;5104269;27;20937;-87
2023/03/05 03:05:51;;;;;;;20.27;10.43;;;9.40;53.80;;;;;;5099419;27;20439;-86
2023/03/05 03:08:18;;;;;;;25.33;12.60;;;9.30;54.40;;;;;;5068233;27;20454;-87
2023/03/05 03:10:46;;;;;;;23.13;11.60;;;9.10;55.20;;;;;;5079915;27;20839;-86
2023/03/05 03:13:13;;;;;;;25.60;13.07;;;9.20;55.00;;;;;;5087803;28;20557;-86
2023/03/05 03:15:40;;;;;;;25.87;12.00;;;9.20;54.90;;;;;;5067502;27;20768;-86
2023/03/05 03:18:07;;;;;;;29.53;13.90;;;9.40;54.70;;;;;;5081758;27;21013;-88
2023/03/05 03:20:37;;;;;;;32.40;13.90;;;9.20;54.60;;;;;;5067530;28;20461;-87
2023/03/05 03:23:04;;;;;;;33.77;14.20;;;9.20;54.80;;;;;;5068056;27;20598;-88
2023/03/05 03:25:31;;;;;;;26.00;12.60;;;9.20;54.90;;;;;;5068272;28;20909;-88
2023/03/05 03:28:00;;;;;;;27.77;13.60;;;9.20;54.80;;;;;;5085341;27;20442;-84
2023/03/05 03:30:27;;;;;;;30.03;13.07;;;9.30;55.00;;;;;;5085998;28;20531;-88
2023/03/05 03:32:54;;;;;;;26.20;12.73;;;9.30;55.10;;;;;;5084903;28;20475;-88
2023/03/05 03:35:21;;;;;;;24.37;11.93;;;9.40;54.80;;;;;;5068919;28;20435;-86
2023/03/05 03:37:48;;;;;;;23.60;13.10;;;9.50;54.60;;;;;;5096157;28;20449;-86
2023/03/05 03:40:15;;;;;;;17.57;10.57;;;9.50;54.40;;;;;;5084091;28;20469;-86
2023/03/05 03:42:42;;;;;;;25.53;12.63;;;9.60;54.20;;;;;;5097508;28;20472;-87
2023/03/05 03:45:11;;;;;;;27.87;13.50;;;9.50;53.70;;;;;;5083452;28;20988;-87
2023/03/05 03:47:38;;;;;;;20.50;12.53;;;9.50;53.90;;;;;;5091802;28;20461;-87
2023/03/05 03:50:06;;;;;;;24.27;12.37;;;9.50;54.30;;;;;;5095731;28;20463;-86
2023/03/05 03:52:33;;;;;;;25.80;12.70;;;9.10;54.90;;;;;;5067490;28;20480;-86
2023/03/05 03:55:00;;;;;;;22.87;12.27;;;9.10;55.50;;;;;;5064325;28;20962;-88
2023/03/05 03:57:28;;;;;;;25.00;13.37;;;9.20;55.30;;;;;;5089637;28;20959;-84
2023/03/05 03:59:56;;;;;;;21.80;13.00;;;9.30;54.90;;;;;;5084879;28;20439;-86
2023/03/05 04:02:24;;;;;;;25.80;12.37;;;9.30;54.50;;;;;;5071293;27;20507;-87
2023/03/05 04:04:52;;;;;;;26.07;12.00;;;9.30;54.50;;;;;;5094470;28;20454;-87
2023/03/05 04:07:19;;;;;;;27.97;14.47;;;9.30;54.50;;;;;;5099236;27;20450;-87
2023/03/05 04:09:46;;;;;;;28.07;13.57;;;9.30;54.80;;;;;;5101533;27;20540;-85
2023/03/05 04:12:16;;;;;;;28.20;14.00;;;9.40;55.00;;;;;;5082980;27;20466;-87
2023/03/05 04:14:45;;;;;;;31.47;13.90;;;9.40;54.80;;;;;;5083422;27;20449;-87
2023/03/05 04:17:12;;;;;;;27.03;13.73;;;9.50;54.90;;;;;;5072454;27;20506;-85
2023/03/05 04:19:41;;;;;;;23.90;13.97;;;9.50;54.80;;;;;;5077285;27;20450;-88
2023/03/05 04:22:10;;;;;;;26.50;14.67;;;9.60;54.70;;;;;;5068546;27;21148;-87
2023/03/05 04:24:38;;;;;;;28.80;14.23;;;9.60;54.50;;;;;;5095301;27;20446;-86
2023/03/05 04:27:05;;;;;;;25.80;12.60;;;9.60;54.30;;;;;;5083555;27;20446;-85
2023/03/05 04:29:32;;;;;;;32.30;16.33;;;9.60;54.40;;;;;;5085880;27;20804;-87
2023/03/05 04:31:59;;;;;;;27.53;13.93;;;9.50;54.80;;;;;;5075920;27;20483;-86
2023/03/05 04:34:27;;;;;;;31.43;14.30;;;9.40;55.10;;;;;;5076978;27;20883;-87
2023/03/05 04:36:55;;;;;;;29.83;15.20;;;9.50;54.90;;;;;;5078647;27;20453;-87
2023/03/05 04:39:22;;;;;;;28.80;13.47;;;9.50;54.90;;;;;;5092087;27;20446;-88
2023/03/05 04:41:49;;;;;;;30.33;14.37;;;9.50;54.80;;;;;;5079719;27;20459;-87
2023/03/05 04:44:18;;;;;;;26.97;13.33;;;9.50;54.80;;;;;;5066561;27;20484;-87
2023/03/05 04:46:45;;;;;;;27.53;13.50;;;9.50;54.70;;;;;;5091945;27;21017;-87
2023/03/05 04:49:11;;;;;;;30.87;13.60;;;9.60;54.70;;;;;;5069256;27;20434;-86
2023/03/05 04:51:38;;;;;;;24.00;13.70;;;9.50;54.70;;;;;;5094392;27;20556;-87
2023/03/05 04:54:07;;;;;;;27.13;13.57;;;9.60;54.70;;;;;;5067621;27;20429;-86
2023/03/05 04:56:34;;;;;;;28.70;13.20;;;9.60;54.70;;;;;;5066472;28;20480;-87
2023/03/05 04:59:01;;;;;;;28.73;13.43;;;9.50;55.00;;;;;;5082738;27;20458;-86
2023/03/05 05:01:28;;;;;;;24.80;13.33;;;9.50;55.10;;;;;;5075819;27;20455;-86
2023/03/05 05:03:55;;;;;;;30.07;13.40;;;9.40;55.20;;;;;;5066920;27;20537;-86
2023/03/05 05:06:22;;;;;;;28.73;13.50;;;9.40;55.10;;;;;;5074905;27;20441;-86
2023/03/05 05:08:49;;;;;;;25.23;13.70;;;9.50;55.00;;;;;;5086085;27;20454;-86
2023/03/05 05:11:17;;;;;;;27.40;13.33;;;9.50;54.90;;;;;;5087045;27;20470;-87
2023/03/05 05:13:44;;;;;;;33.97;14.80;;;9.50;54.80;;;;;;5073228;28;20442;-86
2023/03/05 05:16:11;;;;;;;28.63;13.97;;;9.50;54.70;;;;;;5072727;27;20449;-87
2023/03/05 05:18:38;;;;;;;25.43;12.10;;;9.50;54.70;;;;;;5074628;27;20490;-85
2023/03/05 05:21:08;;;;;;;28.43;14.33;;;9.40;54.90;;;;;;5073937;27;20968;-86
2023/03/05 05:23:35;;;;;;;25.23;13.53;;;9.40;54.80;;;;;;5114854;27;20435;-87
2023/03/05 05:26:04;;;;;;;23.23;13.07;;;9.40;54.90;;;;;;5075130;27;20952;-86
2023/03/05 05:28:33;;;;;;;31.50;13.77;;;9.40;54.90;;;;;;5102008;27;21098;-86
2023/03/05 05:31:00;;;;;;;29.30;14.47;;;9.50;54.80;;;;;;5073628;27;20455;-87
2023/03/05 05:33:27;;;;;;;26.20;12.80;;;9.50;54.70;;;;;;5072433;27;20472;-87
2023/03/05 05:35:54;;;;;;;24.80;13.33;;;9.50;54.60;;;;;;5081895;27;20460;-87
2023/03/05 05:38:21;;;;;;;23.03;12.30;;;9.50;54.50;;;;;;5069057;27;20485;-87
2023/03/05 05:40:48;;;;;;;22.73;11.20;;;9.40;54.40;;;;;;5068414;27;20681;-86
2023/03/05 05:43:15;;;;;;;23.50;12.67;;;9.40;54.50;;;;;;5065111;27;20473;-88
2023/03/05 05:45:43;;;;;;;20.03;10.90;;;9.40;54.50;;;;;;5067188;27;20451;-88
2023/03/05 05:48:10;;;;;;;21.67;11.10;;;9.40;54.50;;;;;;5080101;27;20451;-87
2023/03/05 05:50:39;;;;;;;23.07;11.73;;;9.40;54.60;;;;;;5071631;28;20469;-87
2023/03/05 05:53:06;;;;;;;25.13;13.20;;;9.40;55.10;;;;;;5111918;27;20479;-89
2023/03/05 05:55:33;;;;;;;21.77;11.83;;;9.40;54.50;;;;;;5073025;27;20815;-87
2023/03/05 05:58:00;;;;;;;20.57;11.23;;;9.50;54.60;;;;;;5065749;27;21113;-89
2023/03/05 06:00:27;;;;;;;23.27;11.70;;;9.40;54.50;;;;;;5097494;27;20454;-89
2023/03/05 06:02:55;;;;;;;20.90;11.40;;;9.40;54.50;;;;;;5082935;27;20471;-87
2023/03/05 06:05:23;;;;;;;22.00;10.50;;;9.50;54.50;;;;;;5063079;27;20449;-87
2023/03/05 06:07:50;;;;;;;26.20;12.07;;;9.40;54.70;;;;;;5070434;27;20446;-85
2023/03/05 06:10:17;;;;;;;23.00;12.77;;;9.30;54.80;;;;;;5084689;27;20452;-88
2023/03/05 06:12:44;;;;;;;21.53;12.10;;;9.30;54.90;;;;;;5082400;27;20501;-87
2023/03/05 06:15:11;;;;;;;18.80;10.40;;;9.40;54.90;;;;;;5097903;27;20797;-87
2023/03/05 06:17:38;;;;;;;23.10;10.90;;;9.40;54.80;;;;;;5062703;28;20454;-88
2023/03/05 06:20:08;;;;;;;19.53;10.27;;;9.30;54.50;;;;;;5094626;27;20537;-88
2023/03/05 06:22:36;;;;;;;18.70;9.67;;;9.20;54.30;;;;;;5097995;27;20582;-86
2023/03/05 06:25:03;;;;;;;14.20;8.60;;;9.20;54.10;;;;;;5088103;27;20458;-87
2023/03/05 06:27:31;;;;;;;14.30;8.10;;;9.10;54.00;;;;;;5059596;27;20938;-88
2023/03/05 06:29:58;;;;;;;17.63;8.13;;;9.00;53.90;;;;;;5088848;27;20450;-90
2023/03/05 06:32:25;;;;;;;12.03;6.37;;;8.90;53.70;;;;;;5077153;27;20462;-86
2023/03/05 06:34:53;;;;;;;12.03;6.60;;;8.60;54.40;;;;;;5086621;27;20449;-87
2023/03/05 06:37:22;;;;;;;12.80;4.47;;;8.40;53.80;;;;;;5086464;28;20450;-86
2023/03/05 06:39:49;;;;;;;8.23;5.50;;;8.30;53.30;;;;;;5094410;28;20457;-87
2023/03/05 06:42:18;;;;;;;6.00;3.33;;;8.30;54.30;;;;;;5059350;27;20938;-86
2023/03/05 06:44:45;;;;;;;7.03;3.77;;;8.20;52.70;;;;;;5068820;27;20535;-86
2023/03/05 06:47:13;;;;;;;4.80;3.13;;;8.30;52.40;;;;;;5062021;27;20451;-87
2023/03/05 06:49:40;;;;;;;10.10;3.77;;;8.50;53.00;;;;;;5082262;27;20446;-87
2023/03/05 06:52:09;;;;;;;6.53;3.60;;;8.40;51.60;;;;;;5094375;27;20895;-87
2023/03/05 06:54:38;;;;;;;8.43;3.80;;;8.50;51.80;;;;;;5091094;27;20452;-87
2023/03/05 06:57:05;;;;;;;6.10;3.20;;;8.50;51.80;;;;;;5061775;27;20443;-88
2023/03/05 06:59:32;;;;;;;9.37;3.80;;;8.60;51.90;;;;;;5063390;28;20450;-86
2023/03/05 07:01:59;;;;;;;6.00;3.30;;;8.60;50.90;;;;;;5091149;27;20470;-87
2023/03/05 07:04:26;;;;;;;8.70;2.60;;;8.70;51.00;;;;;;5068637;27;20447;-87
2023/03/05 07:06:53;;;;;;;4.13;2.70;;;8.80;50.50;;;;;;5088760;27;20458;-87
2023/03/05 07:09:19;;;;;;;4.00;3.33;;;8.90;50.20;;;;;;5060089;27;21051;-88
2023/03/05 07:11:48;;;;;;;3.13;2.33;;;9.00;50.10;;;;;;5089146;28;20477;-87
2023/03/05 07:14:15;;;;;;;5.07;2.20;;;9.00;50.30;;;;;;5061084;28;20447;-88
2023/03/05 07:16:42;;;;;;;2.90;2.10;;;8.90;49.20;;;;;;5072969;27;20903;-87
2023/03/05 07:19:10;;;;;;;3.33;2.13;;;8.90;49.40;;;;;;5086092;27;20455;-88
2023/03/05 07:21:37;;;;;;;4.07;3.13;;;9.00;49.70;;;;;;5072403;27;20469;-88
2023/03/05 07:24:05;;;;;;;4.87;2.20;;;9.00;49.60;;;;;;5081410;27;20446;-87
2023/03/05 07:26:33;;;;;;;3.20;2.70;;;9.00;49.30;;;;;;5071497;27;20453;-86
2023/03/05 07:29:01;;;;;;;3.00;2.10;;;9.00;49.20;;;;;;5063034;28;20441;-86
2023/03/05 07:31:30;;;;;;;3.83;2.30;;;9.00;48.10;;;;;;5115231;27;20978;-87
2023/03/05 07:33:59;;;;;;;4.00;1.73;;;9.00;47.90;;;;;;5063416;28;20451;-87
2023/03/05 07:36:26;;;;;;;2.80;2.20;;;9.10;48.40;;;;;;5062353;28;20450;-85
2023/03/05 07:38:53;;;;;;;5.03;2.50;;;9.20;49.20;;;;;;5094573;28;20454;-86
2023/03/05 07:41:23;;;;;;;4.93;2.30;;;9.30;49.60;;;;;;5074504;28;20449;-85
2023/03/05 07:43:51;;;;;;;4.90;2.67;;;9.40;49.50;;;;;;5076469;28;20541;-85
2023/03/05 07:46:22;;;;;;;6.10;5.50;;;9.40;48.50;;;;;;5073552;28;20443;-86
2023/03/05 07:48:49;;;;;;;4.37;2.53;;;9.40;48.40;;;;;;5097420;28;20446;-87
2023/03/05 07:51:18;;;;;;;3.13;2.37;;;9.30;48.70;;;;;;5089713;28;20477;-86
2023/03/05 07:53:47;;;;;;;3.20;1.80;;;9.30;48.80;;;;;;5080592;28;20534;-86
2023/03/05 07:56:20;;;;;;;3.10;1.87;;;9.30;48.20;;;;;;5063139;28;20767;-86
2023/03/05 07:58:47;;;;;;;4.97;2.93;;;9.40;48.00;;;;;;5093254;28;20453;-88
2023/03/05 08:01:14;;;;;;;2.43;1.93;;;9.50;47.70;;;;;;5069669;28;20450;-88
2023/03/05 08:03:43;;;;;;;3.50;2.00;;;9.40;47.40;;;;;;5070593;28;20443;-87
2023/03/05 08:06:11;;;;;;;3.27;1.63;;;9.40;46.80;;;;;;5056577;28;20907;-86
2023/03/05 08:08:39;;;;;;;4.80;1.90;;;9.50;47.30;;;;;;5081735;28;20528;-85
2023/03/05 08:11:07;;;;;;;3.90;2.43;;;9.60;47.00;;;;;;5077356;28;20450;-85
2023/03/05 08:13:34;;;;;;;7.20;2.57;;;9.40;46.20;;;;;;5088767;28;20447;-86
2023/03/05 08:16:04;;;;;;;2.70;1.60;;;9.30;46.20;;;;;;5089753;28;20442;-84
2023/03/05 08:18:31;;;;;;;2.40;1.90;;;9.20;46.70;;;;;;5073783;28;20462;-88
2023/03/05 08:20:59;;;;;;;3.03;1.47;;;9.10;46.70;;;;;;5064403;28;20454;-86
2023/03/05 08:23:27;;;;;;;5.67;2.80;;;9.00;45.80;;;;;;5073959;28;20699;-86
2023/03/05 08:25:54;;;;;;;2.67;1.70;;;9.00;47.00;;;;;;5077914;28;20514;-86
2023/03/05 08:28:21;;;;;;;4.20;2.07;;;9.10;46.30;;;;;;5069328;28;20453;-89
2023/03/05 08:30:49;;;;;;;2.90;1.57;;;9.20;46.00;;;;;;5056708;27;20951;-86
2023/03/05 08:33:17;;;;;;;4.33;1.50;;;9.10;45.80;;;;;;5060353;28;20558;-87
2023/03/05 08:35:44;;;;;;;5.90;1.90;;;9.10;46.20;;;;;;5098083;28;20743;-87
2023/03/05 08:38:12;;;;;;;5.20;1.90;;;9.20;45.80;;;;;;5061710;28;20459;-86
2023/03/05 08:40:39;;;;;;;6.30;4.63;;;9.30;45.40;;;;;;5060350;28;20453;-88
2023/03/05 08:43:06;;;;;;;11.67;5.83;;;9.30;45.50;;;;;;5051408;28;20482;-87
2023/03/05 08:45:33;;;;;;;4.90;2.20;;;9.30;45.80;;;;;;5058415;28;20458;-87
2023/03/05 08:48:00;;;;;;;3.93;2.50;;;9.30;45.40;;;;;;5072178;28;20962;-88
2023/03/05 08:50:27;;;;;;;19.17;16.07;;;9.40;45.70;;;;;;5068385;27;20450;-86
2023/03/05 08:52:55;;;;;;;4.50;3.20;;;9.30;45.90;;;;;;5112097;27;20482;-85
2023/03/05 08:55:24;;;;;;;2.50;1.77;;;9.30;46.50;;;;;;5089491;27;20757;-86
2023/03/05 08:57:51;;;;;;;7.50;4.50;;;9.30;46.00;;;;;;5076077;27;20447;-85
2023/03/05 09:00:18;;;;;;;4.07;3.43;;;9.30;46.20;;;;;;5074215;27;20450;-87
2023/03/05 09:02:45;;;;;;;13.00;8.53;;;9.30;46.20;;;;;;5092715;27;20474;-86
2023/03/05 09:05:12;;;;;;;7.53;4.10;;;9.10;46.10;;;;;;5056993;27;20675;-86
2023/03/05 09:07:39;;;;;;;3.80;3.40;;;9.10;46.50;;;;;;5075032;27;20847;-86
2023/03/05 09:10:10;;;;;;;5.40;2.20;;;9.10;46.60;;;;;;5059318;27;20742;-86
2023/03/05 09:12:38;;;;;;;2.23;2.03;;;9.20;46.90;;;;;;5090519;27;20751;-86
2023/03/05 09:15:07;;;;;;;4.77;2.37;;;9.30;46.20;;;;;;5089695;27;20939;-86
2023/03/05 09:17:34;;;;;;;3.57;2.10;;;9.20;45.70;;;;;;5091171;27;20956;-86
2023/03/05 09:20:02;;;;;;;3.87;1.80;;;9.20;46.40;;;;;;5091946;27;20507;-86
2023/03/05 09:22:29;;;;;;;4.83;2.17;;;9.30;46.20;;;;;;5079412;27;20454;-86
2023/03/05 09:24:56;;;;;;;10.47;6.67;;;9.50;46.50;;;;;;5069382;27;20555;-87
2023/03/05 09:27:23;;;;;;;5.97;3.47;;;9.60;45.90;;;;;;5067502;27;20453;-87
2023/03/05 09:29:52;;;;;;;4.40;2.97;;;9.40;45.60;;;;;;5071607;27;20443;-86
2023/03/05 09:32:19;;;;;;;6.50;3.17;;;9.10;45.80;;;;;;5070911;27;20467;-88
2023/03/05 09:34:46;;;;;;;2.83;2.63;;;9.00;45.60;;;;;;5082903;27;20463;-86
2023/03/05 09:37:13;;;;;;;6.53;4.00;;;8.70;46.20;;;;;;5069606;27;20533;-87
2023/03/05 09:39:40;;;;;;;6.70;4.20;;;8.90;47.10;;;;;;5078305;27;20448;-86
2023/03/05 09:42:27;;;;;;;7.03;3.00;;;9.10;47.10;;;;;;5071515;27;20451;-84
2023/03/05 09:45:09;;;;;;;7.33;4.63;;;9.20;46.60;;;;;;5087783;27;20450;-85
2023/03/05 09:47:48;;;;;;;4.23;2.20;;;9.00;45.80;;;;;;5064823;27;20455;-89
2023/03/05 09:50:31;;;;;;;5.00;3.60;;;9.10;46.60;;;;;;5092013;27;20452;-88
2023/03/05 09:53:04;;;;;;;5.20;2.60;;;9.10;46.00;;;;;;5084051;27;20561;-88
2023/03/05 09:55:39;;;;;;;2.90;2.43;;;9.00;46.30;;;;;;5086739;27;20459;-88
2023/03/05 09:58:11;;;;;;;3.53;3.20;;;9.10;46.40;;;;;;5088378;27;20469;-87
2023/03/05 10:00:44;;;;;;;3.47;2.47;;;9.20;45.90;;;;;;5066617;27;20460;-89
2023/03/05 10:03:18;;;;;;;2.97;2.67;;;9.10;45.30;;;;;;5071410;27;20473;-88
2023/03/05 10:05:58;;;;;;;4.50;2.60;;;9.10;46.00;;;;;;5083726;27;20453;-87
2023/03/05 10:08:31;;;;;;;9.03;3.13;;;9.00;46.00;;;;;;5113816;27;20442;-89
2023/03/05 10:11:01;;;;;;;3.23;2.90;;;9.10;46.20;;;;;;5080863;27;20455;-86
2023/03/05 10:13:36;;;;;;;4.83;3.00;;;9.00;46.40;;;;;;5088931;27;21266;-88
2023/03/05 10:16:24;;;;;;;4.70;3.53;;;9.00;46.50;;;;;;5073522;27;20641;-89
2023/03/05 10:18:57;;;;;;;7.97;3.90;;;8.80;46.80;;;;;;5070237;27;20445;-88
2023/03/05 10:21:30;;;;;;;7.10;4.07;;;8.90;47.80;;;;;;5080510;27;20448;-87
2023/03/05 10:24:07;;;;;;;9.63;4.97;;;8.80;48.10;;;;;;5083324;27;20652;-86
2023/03/05 10:26:47;;;;;;;8.40;5.67;;;8.80;48.30;;;;;;5077950;27;20451;-88
2023/03/05 10:29:45;;;;;;;13.40;4.17;;;8.90;48.10;;;;;;5084149;27;20446;-88
2023/03/05 10:32:28;;;;;;;10.90;5.10;;;9.00;48.20;;;;;;5076784;27;20492;-88
2023/03/05 10:35:17;;;;;;;9.40;5.13;;;9.10;47.70;;;;;;5101413;27;20449;-87
2023/03/05 10:38:00;;;;;;;10.37;4.20;;;9.00;48.00;;;;;;5100259;27;20472;-87
2023/03/05 10:40:32;;;;;;;6.50;3.40;;;9.10;48.00;;;;;;5077696;27;21278;-86
2023/03/05 10:43:07;;;;;;;7.27;4.83;;;8.90;47.80;;;;;;5086927;27;20465;-86
2023/03/05 10:45:38;;;;;;;11.10;8.20;;;9.00;48.20;;;;;;5077259;27;20458;-88
2023/03/05 10:48:14;;;;;;;8.47;5.33;;;9.10;47.60;;;;;;5094525;27;20457;-88
2023/03/05 10:50:46;;;;;;;7.43;4.60;;;9.00;48.20;;;;;;5076165;28;20979;-89
2023/03/05 10:53:19;;;;;;;5.97;4.43;;;9.00;47.40;;;;;;5087937;27;20478;-90
2023/03/05 10:55:46;;;;;;;4.60;3.33;;;9.00;47.40;;;;;;5084835;27;20446;-88
2023/03/05 10:58:15;;;;;;;5.80;4.30;;;9.00;47.40;;;;;;5076159;28;20447;-89
2023/03/05 11:00:58;;;;;;;11.40;4.40;;;8.90;47.50;;;;;;5075154;27;20431;-88
2023/03/05 11:03:42;;;;;;;6.00;3.70;;;8.70;48.00;;;;;;5101381;27;20476;-87
2023/03/05 11:06:13;;;;;;;7.40;6.20;;;8.80;47.80;;;;;;5106898;27;20854;-90
2023/03/05 11:08:41;;;;;;;5.73;3.50;;;8.90;48.30;;;;;;5074009;27;20485;-87
2023/03/05 11:11:15;;;;;;;5.53;3.87;;;8.90;47.10;;;;;;5078636;28;20443;-88
2023/03/05 11:13:52;;;;;;;8.90;4.87;;;9.10;47.30;;;;;;5073754;27;20529;-88
2023/03/05 11:16:22;;;;;;;7.73;4.40;;;9.40;47.60;;;;;;5087944;28;20448;-86
2023/03/05 11:18:50;;;;;;;9.37;5.27;;;9.50;46.20;;;;;;5078965;28;20442;-87
2023/03/05 11:21:22;;;;;;;8.07;4.50;;;9.40;46.00;;;;;;5097107;27;20462;-86
2023/03/05 11:24:06;;;;;;;3.90;3.30;;;9.50;46.30;;;;;;5087065;27;20826;-86
2023/03/05 11:26:33;;;;;;;7.77;3.80;;;9.50;46.00;;;;;;5085040;28;20454;-85
2023/03/05 11:29:03;;;;;;;5.23;3.27;;;9.40;45.70;;;;;;5072818;27;20958;-86
2023/03/05 11:31:32;;;;;;;6.10;3.40;;;9.40;45.70;;;;;;5069419;28;21086;-87
2023/03/05 11:34:03;;;;;;;4.60;2.90;;;9.40;45.40;;;;;;5098940;28;20536;-87
2023/03/05 11:36:32;;;;;;;5.13;3.97;;;9.20;45.40;;;;;;5070816;28;20492;-88
2023/03/05 11:39:09;;;;;;;6.57;4.30;;;9.10;46.30;;;;;;5065156;28;20850;-87
2023/03/05 11:41:39;;;;;;;6.40;5.00;;;9.10;46.60;;;;;;5097453;28;20474;-86
2023/03/05 11:44:12;;;;;;;10.03;5.00;;;9.10;46.60;;;;;;5072776;28;20454;-86
2023/03/05 11:46:43;;;;;;;8.93;4.90;;;9.20;47.30;;;;;;5074673;28;20438;-89
2023/03/05 11:49:16;;;;;;;10.27;5.83;;;9.30;47.40;;;;;;5063811;28;20541;-86
2023/03/05 11:51:48;;;;;;;13.40;10.00;;;9.30;47.00;;;;;;5077906;28;20469;-88
2023/03/05 11:54:21;;;;;;;11.00;8.13;;;9.20;47.20;;;;;;5064051;28;21455;-86
2023/03/05 11:56:48;;;;;;;9.60;6.20;;;9.30;46.90;;;;;;5074423;28;20454;-88
2023/03/05 11:59:18;;;;;;;16.97;9.90;;;9.10;46.70;;;;;;5096570;28;20819;-89
2023/03/05 12:01:48;;;;;;;10.53;6.80;;;9.10;47.40;;;;;;5066249;28;20613;-86
2023/03/05 12:04:18;;;;;;;16.53;9.83;;;9.10;47.50;;;;;;5081888;28;20470;-86
2023/03/05 12:06:48;;;;;;;14.50;7.27;;;9.20;47.80;;;;;;5088392;28;20454;-87
2023/03/05 12:09:23;;;;;;;9.23;5.17;;;9.30;47.10;;;;;;5068199;28;21014;-86
2023/03/05 12:11:53;;;;;;;10.90;5.80;;;9.20;47.20;;;;;;5099899;28;20492;-88
2023/03/05 12:14:25;;;;;;;14.13;8.27;;;9.20;47.10;;;;;;5083926;28;20469;-88
2023/03/05 12:16:58;;;;;;;10.10;6.90;;;9.40;47.20;;;;;;5069482;28;20450;-88
2023/03/05 12:19:39;;;;;;;12.60;4.80;;;9.40;46.90;;;;;;5099440;28;20457;-86
2023/03/05 12:22:16;;;;;;;10.70;8.03;;;9.40;46.50;;;;;;5098745;28;21063;-89
2023/03/05 12:24:43;;;;;;;11.07;6.30;;;9.40;46.00;;;;;;5088944;27;20871;-87
2023/03/05 12:27:16;;;;;;;8.80;4.80;;;9.30;46.40;;;;;;5069905;27;20465;-88
2023/03/05 12:29:45;;;;;;;6.27;3.60;;;9.30;45.90;;;;;;5069476;27;20607;-88
2023/03/05 12:32:59;;;;;;;12.83;5.47;;;9.40;46.10;;;;;;5089969;27;20462;-86
2023/03/05 12:35:31;;;;;;;7.50;4.50;;;9.50;46.10;;;;;;5072730;27;20461;-88
2023/03/05 12:38:27;;;;;;;11.63;7.00;;;9.50;45.70;;;;;;5088605;27;21015;-88
2023/03/05 12:41:42;;;;;;;7.40;4.80;;;9.60;45.70;;;;;;5090149;27;20446;-87
2023/03/05 12:44:22;;;;;;;6.20;5.10;;;9.60;45.40;;;;;;5076915;27;20450;-89
2023/03/05 12:47:16;;;;;;;13.83;5.33;;;9.70;45.50;;;;;;5084785;27;20451;-86
2023/03/05 12:49:45;;;;;;;5.57;4.43;;;9.80;45.60;;;;;;5062143;27;20443;-87
2023/03/05 12:52:23;;;;;;;10.37;4.60;;;9.90;44.60;;;;;;5091857;27;20546;-88
2023/03/05 12:55:02;;;;;;;6.90;4.33;;;10.00;43.00;;;;;;5080558;27;20475;-86
2023/03/05 12:57:31;;;;;;;5.70;4.40;;;10.10;42.70;;;;;;5095487;27;20676;-87